Moorhead, MN

2:21 AM CST on February 20, 2018 (GMT -0600)
Moorhead Municipal

Weather History for KJKJ - January, 2012

Change the Weather History Date:

Tuesday, January 31, 2012

  Actual Average (KFAR) Record (KFAR)
Temperature  
Mean Temperature 30 °F -  
Max Temperature 35 °F 18 °F 44 °F (2009)
Min Temperature 26 °F 0 °F -34 °F (1887)
Degree Days  
Heating Degree Days 34    
Moisture  
Dew Point 29 °F    
Average Humidity 95    
Maximum Humidity 100    
Minimum Humidity 87    
Precipitation  
Precipitation 0.00 in - - ()
Sea Level Pressure  
Sea Level Pressure 29.71 in    
Wind  
Wind Speed 9 mph (West)    
Max Wind Speed 17 mph    
Max Gust Speed -    
Visibility 8 miles    
Events      
Averages and records for this station are not official NWS values.
T = Trace of Precipitation, MM = Missing Value Source: NWS Daily Summary

Daily Weather History Graph

Daily Weather History Graph

Search for Another Location

Airport or City:

Trip Planner

Search our weather history database for the weather conditions in past years. The results will help you decide how hot, cold, wet, or windy it might be!

Date:

Astronomy

Jan. 31, 2012 Rise Set
Actual Time 7:52 AM CST 5:27 PM CST
Civil Twilight 7:20 AM CST 6:00 PM CST
Nautical Twilight 6:43 AM CST 6:36 PM CST
Astronomical Twilight 6:08 AM CST 7:12 PM CST
Moon 11:15 AM CST (1/31) 1:44 AM CST (1/31)
Length of Visible Light 10h 40m
Length of Day
9h 34m
First Quarter, 55% of the Moon is Illuminated
Jan 31
First Quarter
Feb 7
Full
Feb 14
Last Quarter
Feb 21
New
Feb 29
First Quarter

Hourly Weather History & Observations

Time (CST) Temp. Windchill Dew Point Humidity Pressure Visibility Wind Dir Wind Speed Gust Speed Precip Events Conditions
12:14 AM 35.6 °F 27.5 °F 33.8 °F 93% 29.50 in 10.0 mi South 11.5 mph - N/A   Clear
12:34 AM 35.6 °F 29.2 °F 33.8 °F 93% 29.51 in 10.0 mi South 8.1 mph - N/A   Clear
12:54 AM 35.6 °F 29.9 °F 33.8 °F 93% 29.51 in 10.0 mi South 6.9 mph - N/A   Clear
1:15 AM 35.6 °F 29.9 °F 33.8 °F 93% 29.51 in 10.0 mi South 6.9 mph - N/A   Clear
1:34 AM 35.6 °F 29.9 °F 33.8 °F 93% 29.51 in 10.0 mi SSW 6.9 mph - N/A   Clear
1:54 AM 35.6 °F 29.9 °F 33.8 °F 93% 29.51 in 10.0 mi South 6.9 mph - N/A   Clear
2:14 AM 33.8 °F 27.7 °F 30.2 °F 87% 29.51 in 10.0 mi SSW 6.9 mph - N/A   Clear
2:34 AM 33.8 °F 27.0 °F 30.2 °F 87% 29.51 in 10.0 mi SSW 8.1 mph - N/A   Clear
2:55 AM 33.8 °F 28.6 °F 30.2 °F 87% 29.52 in 10.0 mi SSW 5.8 mph - N/A   Clear
3:14 AM 30.2 °F 22.6 °F 28.4 °F 93% 29.52 in 10.0 mi SSW 8.1 mph - N/A   Clear
3:34 AM 30.2 °F 21.9 °F 28.4 °F 93% 29.51 in 10.0 mi SW 9.2 mph - N/A   Clear
3:55 AM 28.4 °F 20.4 °F 26.6 °F 93% 29.52 in 10.0 mi WSW 8.1 mph - N/A   Clear
4:14 AM 30.2 °F 22.6 °F 28.4 °F 93% 29.53 in 10.0 mi West 8.1 mph - N/A   Clear
4:34 AM 26.6 °F 20.0 °F 24.8 °F 93% 29.54 in 10.0 mi West 5.8 mph - N/A   Clear
4:55 AM 26.6 °F 21.2 °F 26.6 °F 100% 29.55 in 10.0 mi West 4.6 mph - N/A   Clear
5:14 AM 28.4 °F 24.6 °F 26.6 °F 93% 29.56 in 10.0 mi West 3.5 mph - N/A   Clear
5:34 AM 26.6 °F 22.6 °F 26.6 °F 100% 29.56 in 10.0 mi WSW 3.5 mph - N/A   Clear
6:14 AM 28.4 °F 23.3 °F 26.6 °F 93% 29.58 in 10.0 mi WSW 4.6 mph - N/A   Overcast
6:34 AM 30.2 °F 25.4 °F 28.4 °F 93% 29.60 in 10.0 mi NW 4.6 mph - N/A   Overcast
6:55 AM 32.0 °F 24.8 °F 30.2 °F 93% 29.61 in 10.0 mi North 8.1 mph - N/A   Overcast
7:14 AM 32.0 °F 23.6 °F 30.2 °F 93% 29.62 in 10.0 mi North 10.4 mph - N/A   Overcast
7:34 AM 32.0 °F 22.5 °F 30.2 °F 93% 29.63 in 7.0 mi NNW 12.7 mph - N/A   Overcast
7:54 AM 32.0 °F 20.8 °F 30.2 °F 93% 29.65 in 5.0 mi NNW 17.3 mph - N/A   Overcast
8:14 AM 30.2 °F 18.9 °F 28.4 °F 93% 29.66 in 4.0 mi North 16.1 mph - N/A   Overcast
8:34 AM 30.2 °F 19.8 °F 28.4 °F 93% 29.68 in 4.0 mi NNW 13.8 mph - N/A   Overcast
9:14 AM 28.4 °F 17.0 °F 28.4 °F 100% 29.71 in 4.0 mi NNW 15.0 mph - N/A   Overcast
9:34 AM 28.4 °F 17.0 °F 28.4 °F 100% 29.72 in 3.0 mi NNW 15.0 mph - N/A   Overcast
9:54 AM 28.4 °F 17.0 °F 28.4 °F 100% 29.73 in 3.0 mi NNW 15.0 mph - N/A   Overcast
10:14 AM 28.4 °F 17.5 °F 28.4 °F 100% 29.73 in 4.0 mi NNW 13.8 mph - N/A   Overcast
10:35 AM 28.4 °F 16.2 °F 28.4 °F 100% 29.74 in 4.0 mi NNW 17.3 mph - N/A   Overcast
10:54 AM 28.4 °F 17.5 °F 28.4 °F 100% 29.75 in 4.0 mi NNW 13.8 mph - N/A   Overcast
11:14 AM 28.4 °F 17.5 °F 28.4 °F 100% 29.76 in 4.0 mi NNW 13.8 mph - N/A   Overcast
11:54 AM 28.4 °F 18.5 °F 28.4 °F 100% 29.77 in 4.0 mi NNW 11.5 mph - N/A   Overcast
12:14 PM 28.4 °F 18.5 °F 28.4 °F 100% 29.78 in 4.0 mi NNW 11.5 mph - N/A   Overcast
12:34 PM 28.4 °F 17.0 °F 28.4 °F 100% 29.78 in 5.0 mi NNW 15.0 mph - N/A   Overcast
12:54 PM 28.4 °F 18.0 °F 28.4 °F 100% 29.79 in 7.0 mi NW 12.7 mph - N/A   Overcast
1:14 PM 30.2 °F 19.8 °F 28.4 °F 93% 29.79 in 7.0 mi NW 13.8 mph - N/A   Overcast
1:34 PM 30.2 °F 19.8 °F 28.4 °F 93% 29.80 in 7.0 mi NW 13.8 mph - N/A   Overcast
1:54 PM 30.2 °F 21.9 °F 28.4 °F 93% 29.80 in 7.0 mi NNW 9.2 mph - N/A   Overcast
2:14 PM 30.2 °F 21.9 °F 28.4 °F 93% 29.80 in 5.0 mi NW 9.2 mph - N/A   Overcast
2:34 PM 30.2 °F 21.9 °F 28.4 °F 93% 29.81 in 5.0 mi NW 9.2 mph - N/A   Overcast
2:54 PM 30.2 °F 21.9 °F 28.4 °F 93% 29.81 in 7.0 mi WNW 9.2 mph - N/A   Overcast
3:15 PM 30.2 °F 21.9 °F 30.2 °F 100% 29.82 in 7.0 mi NW 9.2 mph - N/A   Overcast
3:34 PM 30.2 °F 21.3 °F 30.2 °F 100% 29.83 in 7.0 mi NW 10.4 mph - N/A   Overcast
3:55 PM 30.2 °F 23.4 °F 30.2 °F 100% 29.84 in 7.0 mi NW 6.9 mph - N/A   Overcast
4:14 PM 32.0 °F 26.4 °F 30.2 °F 93% 29.84 in 10.0 mi WNW 5.8 mph - N/A   Overcast
4:34 PM 32.0 °F 26.4 °F 30.2 °F 93% 29.84 in 10.0 mi NW 5.8 mph - N/A   Overcast
4:55 PM 32.0 °F 28.7 °F 30.2 °F 93% 29.85 in 10.0 mi WNW 3.5 mph - N/A   Overcast
5:14 PM 32.0 °F 28.7 °F 30.2 °F 93% 29.86 in 10.0 mi WNW 3.5 mph - N/A   Overcast
5:34 PM 32.0 °F - 30.2 °F 93% 29.86 in 10.0 mi Calm Calm - N/A   Overcast
5:54 PM 32.0 °F 27.5 °F 30.2 °F 93% 29.87 in 10.0 mi WSW 4.6 mph - N/A   Overcast
6:14 PM 32.0 °F 27.5 °F 30.2 °F 93% 29.87 in 7.0 mi West 4.6 mph - N/A   Overcast
6:35 PM 32.0 °F 26.4 °F 30.2 °F 93% 29.87 in 7.0 mi WSW 5.8 mph - N/A   Overcast
6:54 PM 32.0 °F 26.4 °F 30.2 °F 93% 29.89 in 7.0 mi West 5.8 mph - N/A   Overcast
7:14 PM 30.2 °F 25.4 °F 30.2 °F 100% 29.89 in 10.0 mi SW 4.6 mph - N/A   Overcast
7:35 PM 30.2 °F 25.4 °F 30.2 °F 100% 29.90 in 10.0 mi SW 4.6 mph - N/A   Overcast
7:54 PM 30.2 °F 24.3 °F 30.2 °F 100% 29.90 in 10.0 mi SSW 5.8 mph - N/A   Overcast
8:14 PM 30.2 °F 24.3 °F 30.2 °F 100% 29.90 in 10.0 mi SSW 5.8 mph - N/A   Overcast
8:35 PM 30.2 °F 22.6 °F 30.2 °F 100% 29.91 in 10.0 mi SSW 8.1 mph - N/A   Overcast
8:54 PM 30.2 °F 24.3 °F 30.2 °F 100% 29.91 in 10.0 mi SSW 5.8 mph - N/A   Overcast
9:14 PM 30.2 °F 26.7 °F 30.2 °F 100% 29.91 in 7.0 mi South 3.5 mph - N/A   Mostly Cloudy
9:35 PM 30.2 °F 25.4 °F 28.4 °F 93% 29.91 in 7.0 mi South 4.6 mph - N/A   Scattered Clouds
9:54 PM 30.2 °F 24.3 °F 28.4 °F 93% 29.92 in 7.0 mi South 5.8 mph - N/A   Scattered Clouds
10:14 PM 28.4 °F 23.3 °F 28.4 °F 100% 29.92 in 5.0 mi South 4.6 mph - N/A   Clear
10:35 PM 28.4 °F 21.2 °F 28.4 °F 100% 29.92 in 4.0 mi South 6.9 mph - N/A   Clear
10:54 PM 28.4 °F 22.2 °F 28.4 °F 100% 29.92 in 4.0 mi South 5.8 mph - N/A   Clear
11:15 PM 28.4 °F 22.2 °F 28.4 °F 100% 29.93 in 4.0 mi South 5.8 mph - N/A   Clear
11:34 PM 28.4 °F 22.2 °F 28.4 °F 100% 29.92 in 3.0 mi South 5.8 mph - N/A   Clear
11:54 PM 28.4 °F 22.2 °F 26.6 °F 93% 29.93 in 3.0 mi South 5.8 mph - N/A   Clear